Time;durP1;ratioP1;P1;durP2;ratioP2;P2;SDS_P1;SDS_P2;PMS_P1;PMS_P2;Temp;Humidity;BMP_temperature;BMP_pressure;BME280_temperature;BME280_humidity;BME280_pressure;Samples;Min_cycle;Max_cycle;Signal;HPM_P1;HPM_P2
2021/11/21 00:01:19;;;;;;;11.83;7.73;;;;;;;;;;5000780;28;20221;-74
2021/11/21 00:03:47;;;;;;;11.20;7.10;;;;;;;;;;5012668;28;20232;-74
2021/11/21 00:06:15;;;;;;;13.20;9.30;;;;;;;;;;4970672;28;20228;-75
2021/11/21 00:08:44;;;;;;;14.13;9.10;;;;;;;;;;4980110;28;20706;-73
2021/11/21 00:11:12;;;;;;;13.00;8.23;;;;;;;;;;4995621;28;20302;-74
2021/11/21 00:13:42;;;;;;;13.90;8.20;;;;;;;;;;5012311;28;20220;-75
2021/11/21 00:16:08;;;;;;;15.63;10.37;;;;;;;;;;4995588;28;20308;-74
2021/11/21 00:18:33;;;;;;;14.67;8.90;;;;;;;;;;5012923;28;20760;-74
2021/11/21 00:21:00;;;;;;;14.53;9.00;;;;;;;;;;4996573;28;20217;-74
2021/11/21 00:23:28;;;;;;;18.80;11.67;;;;;;;;;;4995575;28;20278;-74
2021/11/21 00:25:56;;;;;;;19.47;11.53;;;;;;;;;;4996350;28;20231;-74
2021/11/21 00:28:21;;;;;;;15.53;9.27;;;;;;;;;;5011737;28;20224;-74
2021/11/21 00:30:50;;;;;;;18.97;10.77;;;;;;;;;;4996019;28;20227;-75
2021/11/21 00:33:15;;;;;;;16.40;9.97;;;;;;;;;;5008246;28;20221;-74
2021/11/21 00:35:47;;;;;;;17.90;10.53;;;;;;;;;;5011560;28;20224;-74
2021/11/21 00:38:20;;;;;;;18.53;12.70;;;;;;;;;;4979604;28;20271;-75
2021/11/21 00:40:52;;;;;;;17.30;11.90;;;;;;;;;;4977970;28;20615;-74
2021/11/21 00:43:21;;;;;;;18.57;10.83;;;;;;;;;;4994364;28;20225;-74
2021/11/21 00:45:48;;;;;;;14.67;10.10;;;;;;;;;;5007900;28;20225;-74
2021/11/21 00:48:23;;;;;;;18.13;10.93;;;;;;;;;;4976574;28;20724;-74
2021/11/21 00:50:53;;;;;;;16.83;10.93;;;;;;;;;;5013324;28;20228;-74
2021/11/21 00:53:19;;;;;;;16.33;10.67;;;;;;;;;;5011807;28;20267;-75
2021/11/21 00:56:09;;;;;;;15.10;10.27;;;;;;;;;;4995592;28;20221;-75
2021/11/21 00:58:34;;;;;;;17.37;12.13;;;;;;;;;;5013398;28;20213;-74
2021/11/21 01:01:03;;;;;;;16.13;11.13;;;;;;;;;;5012333;28;20283;-75
2021/11/21 01:03:31;;;;;;;16.10;10.50;;;;;;;;;;5011430;28;20236;-75
2021/11/21 01:05:59;;;;;;;15.83;9.63;;;;;;;;;;4995380;28;20254;-75
2021/11/21 01:08:25;;;;;;;15.87;11.37;;;;;;;;;;5008125;28;20691;-75
2021/11/21 01:10:53;;;;;;;17.43;11.10;;;;;;;;;;4960198;28;20217;-75
2021/11/21 01:13:24;;;;;;;15.73;10.40;;;;;;;;;;4970689;28;20229;-75
2021/11/21 01:15:49;;;;;;;16.53;11.47;;;;;;;;;;4991792;28;20257;-74
2021/11/21 01:18:18;;;;;;;16.53;11.40;;;;;;;;;;4985254;28;20256;-74
2021/11/21 01:20:45;;;;;;;18.27;11.93;;;;;;;;;;4991719;28;20248;-74
2021/11/21 01:23:12;;;;;;;17.97;12.00;;;;;;;;;;4987640;28;20616;-73
2021/11/21 01:25:38;;;;;;;19.23;11.53;;;;;;;;;;4994560;28;20245;-73
2021/11/21 01:28:04;;;;;;;17.10;11.50;;;;;;;;;;4994530;28;20220;-74
2021/11/21 01:30:32;;;;;;;17.20;11.57;;;;;;;;;;5011319;28;20649;-73
2021/11/21 01:32:59;;;;;;;16.67;11.67;;;;;;;;;;4994966;28;20217;-74
2021/11/21 01:35:25;;;;;;;20.73;14.57;;;;;;;;;;5010281;28;20225;-74
2021/11/21 01:37:56;;;;;;;19.13;13.10;;;;;;;;;;4992070;28;20222;-74
2021/11/21 01:40:24;;;;;;;18.80;12.47;;;;;;;;;;4974642;28;20225;-75
2021/11/21 01:42:55;;;;;;;18.13;12.17;;;;;;;;;;4982804;28;20213;-74
2021/11/21 01:45:21;;;;;;;20.03;13.53;;;;;;;;;;4994304;28;20229;-75
2021/11/21 01:47:49;;;;;;;18.67;12.10;;;;;;;;;;5012125;28;20771;-74
2021/11/21 01:50:20;;;;;;;20.73;13.60;;;;;;;;;;4994664;28;20223;-73
2021/11/21 01:52:48;;;;;;;19.73;13.57;;;;;;;;;;4992175;28;20221;-74
2021/11/21 01:55:14;;;;;;;19.40;12.70;;;;;;;;;;4990223;28;20305;-76
2021/11/21 01:57:45;;;;;;;20.17;13.50;;;;;;;;;;4978084;28;20603;-75
2021/11/21 02:00:11;;;;;;;20.10;13.13;;;;;;;;;;5005772;28;20629;-75
2021/11/21 02:02:44;;;;;;;20.40;13.47;;;;;;;;;;4995010;28;20279;-74
2021/11/21 02:05:13;;;;;;;20.80;13.77;;;;;;;;;;4994935;28;20320;-75
2021/11/21 02:07:42;;;;;;;27.13;17.27;;;;;;;;;;5010651;28;20217;-74
2021/11/21 02:10:10;;;;;;;20.03;13.90;;;;;;;;;;5002684;28;20231;-73
2021/11/21 02:12:38;;;;;;;19.00;13.73;;;;;;;;;;5012703;28;20213;-73
2021/11/21 02:15:08;;;;;;;22.47;14.93;;;;;;;;;;5021836;28;20225;-74
2021/11/21 02:17:33;;;;;;;24.83;16.30;;;;;;;;;;5005656;28;20221;-74
2021/11/21 02:20:02;;;;;;;19.13;13.57;;;;;;;;;;4994496;28;20299;-74
2021/11/21 02:22:30;;;;;;;22.27;14.53;;;;;;;;;;5010757;28;20663;-74
2021/11/21 02:24:58;;;;;;;21.07;14.10;;;;;;;;;;4991221;28;20232;-75
2021/11/21 02:27:28;;;;;;;23.40;15.43;;;;;;;;;;4990858;28;20217;-74
2021/11/21 02:29:54;;;;;;;23.00;15.53;;;;;;;;;;4976921;28;20646;-74
2021/11/21 02:32:20;;;;;;;21.30;15.37;;;;;;;;;;4993254;28;20231;-76
2021/11/21 02:34:45;;;;;;;23.67;15.13;;;;;;;;;;4979064;28;20225;-75
2021/11/21 02:37:13;;;;;;;21.53;14.70;;;;;;;;;;4975317;28;20449;-74
2021/11/21 02:39:39;;;;;;;22.67;15.07;;;;;;;;;;5004957;28;20274;-74
2021/11/21 02:42:08;;;;;;;23.30;14.93;;;;;;;;;;5010354;28;20220;-76
2021/11/21 02:44:38;;;;;;;23.33;14.80;;;;;;;;;;4987359;28;20261;-75
2021/11/21 02:47:08;;;;;;;22.20;15.27;;;;;;;;;;5012178;28;20217;-75
2021/11/21 02:49:38;;;;;;;21.27;15.27;;;;;;;;;;4991973;28;20304;-75
2021/11/21 02:52:08;;;;;;;21.33;14.20;;;;;;;;;;4991386;28;20656;-76
2021/11/21 02:54:34;;;;;;;21.27;15.53;;;;;;;;;;4999811;28;20230;-74
2021/11/21 02:57:02;;;;;;;20.90;15.60;;;;;;;;;;4959533;28;20225;-74
2021/11/21 02:59:29;;;;;;;22.53;15.90;;;;;;;;;;5002240;28;20231;-75
2021/11/21 03:01:57;;;;;;;23.20;15.60;;;;;;;;;;4979022;28;20221;-73
2021/11/21 03:04:23;;;;;;;24.73;16.40;;;;;;;;;;5011550;28;20221;-74
2021/11/21 03:06:52;;;;;;;21.20;15.07;;;;;;;;;;5010333;28;20228;-74
2021/11/21 03:09:23;;;;;;;20.63;14.47;;;;;;;;;;5007079;28;20209;-74
2021/11/21 03:11:52;;;;;;;22.37;15.10;;;;;;;;;;4990977;28;20221;-75
2021/11/21 03:14:19;;;;;;;23.67;15.33;;;;;;;;;;4976617;28;20221;-76
2021/11/21 03:16:51;;;;;;;21.23;14.47;;;;;;;;;;4990762;28;20228;-75
2021/11/21 03:19:17;;;;;;;23.23;15.63;;;;;;;;;;4980032;28;20216;-74
2021/11/21 03:21:43;;;;;;;23.17;15.43;;;;;;;;;;5012046;28;20231;-74
2021/11/21 03:24:11;;;;;;;21.33;15.13;;;;;;;;;;4994346;28;20228;-74
2021/11/21 03:26:36;;;;;;;22.73;15.47;;;;;;;;;;4994084;28;20226;-75
2021/11/21 03:29:05;;;;;;;22.70;15.23;;;;;;;;;;4994088;28;20219;-75
2021/11/21 03:31:33;;;;;;;23.37;16.47;;;;;;;;;;5010769;28;20221;-76
2021/11/21 03:34:01;;;;;;;22.83;16.23;;;;;;;;;;4994168;28;20274;-75
2021/11/21 03:36:29;;;;;;;23.17;16.13;;;;;;;;;;5009596;28;20228;-75
2021/11/21 03:38:56;;;;;;;24.33;16.30;;;;;;;;;;4994639;28;20644;-75
2021/11/21 03:41:21;;;;;;;23.80;16.00;;;;;;;;;;4989855;28;20371;-76
2021/11/21 03:43:48;;;;;;;24.13;16.13;;;;;;;;;;4990729;28;20222;-75
2021/11/21 03:46:18;;;;;;;26.83;17.33;;;;;;;;;;5008402;28;20702;-75
2021/11/21 03:48:43;;;;;;;23.30;16.50;;;;;;;;;;4994260;28;20288;-75
2021/11/21 03:51:11;;;;;;;23.97;16.43;;;;;;;;;;5005420;28;20224;-75
2021/11/21 03:53:37;;;;;;;22.73;16.87;;;;;;;;;;4990769;28;20217;-76
2021/11/21 03:56:03;;;;;;;25.20;17.03;;;;;;;;;;5004201;28;20240;-74
2021/11/21 03:58:31;;;;;;;23.37;16.03;;;;;;;;;;5009551;28;20267;-75
2021/11/21 04:00:59;;;;;;;22.97;16.30;;;;;;;;;;4986883;28;20231;-74
2021/11/21 04:03:32;;;;;;;25.47;16.90;;;;;;;;;;5009744;28;20685;-74
2021/11/21 04:05:58;;;;;;;25.60;16.87;;;;;;;;;;5009367;28;20233;-74
2021/11/21 04:08:25;;;;;;;25.20;16.90;;;;;;;;;;4987074;28;20272;-74
2021/11/21 04:10:54;;;;;;;24.43;16.43;;;;;;;;;;4998109;28;20348;-74
2021/11/21 04:13:22;;;;;;;22.87;17.27;;;;;;;;;;4974022;28;20279;-75
2021/11/21 04:15:48;;;;;;;26.87;18.87;;;;;;;;;;4983352;28;20213;-75
2021/11/21 04:18:19;;;;;;;25.43;18.07;;;;;;;;;;4993382;28;20223;-75
2021/11/21 04:20:45;;;;;;;24.03;16.90;;;;;;;;;;4989615;28;20217;-75
2021/11/21 04:23:11;;;;;;;25.20;16.07;;;;;;;;;;4958915;28;20244;-73
2021/11/21 04:25:41;;;;;;;22.03;15.70;;;;;;;;;;5001779;28;20701;-74
2021/11/21 04:28:11;;;;;;;24.07;16.13;;;;;;;;;;4996654;28;20248;-75
2021/11/21 04:30:41;;;;;;;25.63;16.90;;;;;;;;;;4989774;28;20209;-75
2021/11/21 04:33:10;;;;;;;23.33;15.70;;;;;;;;;;4998176;28;20217;-75
2021/11/21 04:35:35;;;;;;;25.63;16.43;;;;;;;;;;4989580;28;20217;-75
2021/11/21 04:38:01;;;;;;;24.87;16.10;;;;;;;;;;4973207;28;20225;-75
2021/11/21 04:40:27;;;;;;;23.40;15.40;;;;;;;;;;5025824;28;20628;-74
2021/11/21 04:42:56;;;;;;;22.63;15.13;;;;;;;;;;5010851;28;20221;-74
2021/11/21 04:45:22;;;;;;;23.53;17.17;;;;;;;;;;5005561;28;20372;-74
2021/11/21 04:47:47;;;;;;;24.97;16.03;;;;;;;;;;5004246;28;20226;-73
2021/11/21 04:50:15;;;;;;;24.33;15.60;;;;;;;;;;4982769;28;20225;-74
2021/11/21 04:52:41;;;;;;;23.43;15.17;;;;;;;;;;5013405;28;20244;-74
2021/11/21 04:55:07;;;;;;;23.40;15.33;;;;;;;;;;4997756;28;20306;-74
2021/11/21 04:57:39;;;;;;;24.10;15.70;;;;;;;;;;5013131;28;20594;-75
2021/11/21 05:00:07;;;;;;;24.77;15.90;;;;;;;;;;5012300;28;20292;-75
2021/11/21 05:02:40;;;;;;;21.17;14.40;;;;;;;;;;4992182;28;20217;-75
2021/11/21 05:05:11;;;;;;;22.90;13.93;;;;;;;;;;4984527;28;20300;-74
2021/11/21 05:07:37;;;;;;;20.37;13.63;;;;;;;;;;4994847;28;20611;-74
2021/11/21 05:10:05;;;;;;;21.77;14.03;;;;;;;;;;4994837;28;20220;-74
2021/11/21 05:12:31;;;;;;;21.60;13.90;;;;;;;;;;4995569;28;20669;-74
2021/11/21 05:14:58;;;;;;;20.50;14.40;;;;;;;;;;4996484;28;20221;-75
2021/11/21 05:17:29;;;;;;;20.90;13.93;;;;;;;;;;4997195;28;20687;-75
2021/11/21 05:19:58;;;;;;;21.20;13.33;;;;;;;;;;4977537;28;20214;-75
2021/11/21 05:22:24;;;;;;;18.27;12.80;;;;;;;;;;4991605;28;20300;-73
2021/11/21 05:24:52;;;;;;;18.70;13.13;;;;;;;;;;4996039;28;20229;-74
2021/11/21 05:27:17;;;;;;;20.20;13.50;;;;;;;;;;4999193;28;20217;-74
2021/11/21 05:29:43;;;;;;;19.23;12.17;;;;;;;;;;4959542;28;20226;-74
2021/11/21 05:32:09;;;;;;;19.03;12.53;;;;;;;;;;4980528;28;20220;-73
2021/11/21 05:34:37;;;;;;;20.17;12.77;;;;;;;;;;5011888;28;20229;-74
2021/11/21 05:37:08;;;;;;;16.93;11.67;;;;;;;;;;5012074;28;20220;-75
2021/11/21 05:39:41;;;;;;;18.27;11.93;;;;;;;;;;4997503;28;20726;-75
2021/11/21 05:42:07;;;;;;;20.40;12.67;;;;;;;;;;5013986;28;20244;-75
2021/11/21 05:44:33;;;;;;;19.17;11.30;;;;;;;;;;4995923;28;20221;-75
2021/11/21 05:46:59;;;;;;;17.37;11.20;;;;;;;;;;4996103;28;20216;-75
2021/11/21 05:49:25;;;;;;;17.87;10.87;;;;;;;;;;5011102;28;20311;-74
2021/11/21 05:51:50;;;;;;;16.37;10.87;;;;;;;;;;4994878;28;20622;-74
2021/11/21 05:54:16;;;;;;;16.27;10.90;;;;;;;;;;5011127;28;20351;-74
2021/11/21 05:56:42;;;;;;;13.10;9.47;;;;;;;;;;4993532;28;20228;-75
2021/11/21 05:59:10;;;;;;;15.43;9.63;;;;;;;;;;5009517;28;20227;-75
2021/11/21 06:01:35;;;;;;;16.23;10.47;;;;;;;;;;4980372;28;20355;-74
2021/11/21 06:04:01;;;;;;;13.83;9.00;;;;;;;;;;5011341;28;20702;-75
2021/11/21 06:06:27;;;;;;;14.33;8.90;;;;;;;;;;5011835;28;20779;-75
2021/11/21 06:08:57;;;;;;;13.80;9.57;;;;;;;;;;4994185;28;20217;-74
2021/11/21 06:11:25;;;;;;;13.87;9.73;;;;;;;;;;5011842;28;20213;-74
2021/11/21 06:13:53;;;;;;;14.20;9.13;;;;;;;;;;4991658;28;20213;-74
2021/11/21 06:16:22;;;;;;;14.47;9.17;;;;;;;;;;4990724;28;20237;-74
2021/11/21 06:18:57;;;;;;;14.03;9.40;;;;;;;;;;5010091;28;20225;-74
2021/11/21 06:21:26;;;;;;;13.07;8.43;;;;;;;;;;4995391;28;20217;-75
2021/11/21 06:23:51;;;;;;;13.30;8.97;;;;;;;;;;4976039;28;20230;-74
2021/11/21 06:26:19;;;;;;;13.50;9.60;;;;;;;;;;4976721;28;20711;-75
2021/11/21 06:28:47;;;;;;;12.87;8.57;;;;;;;;;;4959637;28;20301;-74
2021/11/21 06:31:13;;;;;;;12.10;8.27;;;;;;;;;;4974554;28;20221;-73
2021/11/21 06:33:39;;;;;;;14.17;9.20;;;;;;;;;;4994906;28;20707;-74
2021/11/21 06:36:07;;;;;;;10.80;8.33;;;;;;;;;;5010469;28;20247;-74
2021/11/21 06:38:33;;;;;;;11.83;8.53;;;;;;;;;;5012163;28;20688;-73
2021/11/21 06:40:59;;;;;;;11.83;8.57;;;;;;;;;;4994669;28;20290;-74
2021/11/21 06:43:27;;;;;;;13.77;8.87;;;;;;;;;;4990296;28;20711;-73
2021/11/21 06:45:52;;;;;;;13.20;8.40;;;;;;;;;;4990223;28;20229;-74
2021/11/21 06:48:22;;;;;;;14.93;8.97;;;;;;;;;;4968835;28;20239;-75
2021/11/21 06:50:53;;;;;;;15.03;9.53;;;;;;;;;;4995316;28;20235;-75
2021/11/21 06:53:21;;;;;;;13.47;9.17;;;;;;;;;;4994011;28;20610;-73
2021/11/21 06:55:48;;;;;;;13.37;9.33;;;;;;;;;;4973754;28;20225;-73
2021/11/21 06:58:16;;;;;;;15.93;9.63;;;;;;;;;;4994036;28;20355;-73
2021/11/21 07:00:47;;;;;;;15.13;9.70;;;;;;;;;;5010760;28;20223;-74
2021/11/21 07:03:13;;;;;;;14.43;10.50;;;;;;;;;;5010023;28;20223;-75
2021/11/21 07:05:41;;;;;;;14.13;10.67;;;;;;;;;;4982320;28;20233;-74
2021/11/21 07:08:10;;;;;;;15.07;10.40;;;;;;;;;;4986914;28;20308;-74
2021/11/21 07:10:38;;;;;;;14.23;9.87;;;;;;;;;;4962834;28;20220;-73
2021/11/21 07:13:04;;;;;;;13.00;8.67;;;;;;;;;;4994985;28;20650;-75
2021/11/21 07:15:37;;;;;;;15.43;10.43;;;;;;;;;;5031410;28;20263;-74
2021/11/21 07:18:02;;;;;;;15.67;9.93;;;;;;;;;;5029277;28;20288;-73
2021/11/21 07:20:30;;;;;;;16.10;10.40;;;;;;;;;;4996094;28;20227;-75
2021/11/21 07:22:56;;;;;;;16.37;10.73;;;;;;;;;;5016467;28;20233;-73
2021/11/21 07:25:23;;;;;;;12.30;9.27;;;;;;;;;;4994889;28;20251;-74
2021/11/21 07:27:50;;;;;;;14.07;9.83;;;;;;;;;;5010645;28;20268;-75
2021/11/21 07:30:19;;;;;;;16.53;9.77;;;;;;;;;;4991777;28;20304;-74
2021/11/21 07:32:47;;;;;;;15.00;9.53;;;;;;;;;;5007897;28;20217;-74
2021/11/21 07:35:15;;;;;;;13.07;9.20;;;;;;;;;;5001301;28;20255;-73
2021/11/21 07:37:41;;;;;;;16.67;9.43;;;;;;;;;;4993357;28;20245;-74
2021/11/21 07:40:12;;;;;;;13.53;8.67;;;;;;;;;;5025288;28;20213;-74
2021/11/21 07:42:40;;;;;;;13.00;8.63;;;;;;;;;;4995823;28;20598;-73
2021/11/21 07:45:07;;;;;;;14.77;9.27;;;;;;;;;;4986251;28;20232;-72
2021/11/21 07:47:34;;;;;;;13.63;8.50;;;;;;;;;;4993490;28;20220;-74
2021/11/21 07:50:03;;;;;;;11.83;8.07;;;;;;;;;;5000455;28;20214;-73
2021/11/21 07:52:33;;;;;;;15.77;8.60;;;;;;;;;;4971326;28;20229;-75
2021/11/21 07:55:04;;;;;;;13.17;8.57;;;;;;;;;;5001555;28;20234;-75
2021/11/21 07:57:29;;;;;;;14.90;8.90;;;;;;;;;;5020299;28;20222;-74
2021/11/21 07:59:57;;;;;;;11.07;8.27;;;;;;;;;;5012852;28;20217;-75
2021/11/21 08:02:25;;;;;;;16.60;8.80;;;;;;;;;;4994933;28;20228;-75
2021/11/21 08:04:51;;;;;;;10.67;7.93;;;;;;;;;;4995841;28;20232;-75
2021/11/21 08:07:19;;;;;;;9.90;7.80;;;;;;;;;;4994354;28;20323;-75
2021/11/21 08:09:44;;;;;;;14.60;7.80;;;;;;;;;;5005230;28;20758;-74
2021/11/21 08:12:12;;;;;;;10.60;7.40;;;;;;;;;;4992702;28;20221;-76
2021/11/21 08:14:38;;;;;;;10.30;7.07;;;;;;;;;;5004433;28;20698;-77
2021/11/21 08:17:09;;;;;;;9.87;7.23;;;;;;;;;;4997187;28;20270;-73
2021/11/21 08:19:39;;;;;;;13.23;9.10;;;;;;;;;;4996394;28;20244;-74
2021/11/21 08:22:05;;;;;;;9.70;7.00;;;;;;;;;;4995166;28;20312;-72
2021/11/21 08:24:31;;;;;;;10.03;7.57;;;;;;;;;;5008634;28;20313;-75
2021/11/21 08:26:56;;;;;;;12.73;7.40;;;;;;;;;;5007504;28;20225;-74
2021/11/21 08:29:25;;;;;;;14.03;7.60;;;;;;;;;;4982875;28;20353;-73
2021/11/21 08:31:52;;;;;;;11.60;7.67;;;;;;;;;;5009332;28;20213;-73
2021/11/21 08:34:21;;;;;;;11.50;7.77;;;;;;;;;;5003888;28;20291;-75
2021/11/21 08:36:52;;;;;;;11.40;6.93;;;;;;;;;;4994261;28;20220;-74
2021/11/21 08:39:20;;;;;;;10.53;6.50;;;;;;;;;;4997764;28;20568;-75
2021/11/21 08:41:49;;;;;;;11.53;6.17;;;;;;;;;;4996401;28;20224;-74
2021/11/21 08:44:20;;;;;;;7.70;5.60;;;;;;;;;;4994857;28;20225;-76
2021/11/21 08:46:48;;;;;;;7.93;5.33;;;;;;;;;;5012707;28;20219;-75
2021/11/21 08:49:17;;;;;;;8.73;5.30;;;;;;;;;;4979178;28;20213;-75
2021/11/21 08:51:43;;;;;;;8.33;5.47;;;;;;;;;;4993032;28;20240;-74
2021/11/21 08:54:12;;;;;;;8.20;4.57;;;;;;;;;;4988251;28;20219;-73
2021/11/21 08:56:37;;;;;;;6.83;4.53;;;;;;;;;;4996033;28;20216;-74
2021/11/21 08:59:04;;;;;;;8.43;4.70;;;;;;;;;;4973925;28;20216;-73
2021/11/21 09:01:29;;;;;;;8.13;4.20;;;;;;;;;;4995234;28;20223;-74
2021/11/21 09:03:55;;;;;;;9.90;4.73;;;;;;;;;;5009264;28;20229;-73
2021/11/21 09:06:21;;;;;;;8.23;4.90;;;;;;;;;;5008557;28;20600;-73
2021/11/21 09:08:49;;;;;;;9.10;5.00;;;;;;;;;;5004329;28;20226;-73
2021/11/21 09:11:15;;;;;;;8.43;4.83;;;;;;;;;;5010981;28;20743;-74
2021/11/21 09:13:41;;;;;;;7.50;4.50;;;;;;;;;;4991694;28;20253;-74
2021/11/21 09:16:14;;;;;;;7.57;4.37;;;;;;;;;;4996335;28;20252;-74
2021/11/21 09:18:44;;;;;;;8.00;4.47;;;;;;;;;;4992961;28;20719;-75
2021/11/21 09:21:10;;;;;;;7.73;4.57;;;;;;;;;;5009094;28;20213;-74
2021/11/21 09:23:37;;;;;;;8.77;5.00;;;;;;;;;;5015307;28;20718;-74
2021/11/21 09:26:04;;;;;;;12.77;5.30;;;;;;;;;;5007098;28;20722;-73
2021/11/21 09:28:32;;;;;;;6.97;4.70;;;;;;;;;;4991776;28;20614;-73
2021/11/21 09:31:02;;;;;;;9.00;5.13;;;;;;;;;;4995153;28;20232;-75
2021/11/21 09:33:30;;;;;;;10.43;5.43;;;;;;;;;;4995555;28;20251;-73
2021/11/21 09:35:59;;;;;;;11.43;5.23;;;;;;;;;;4988721;28;20224;-74
2021/11/21 09:38:26;;;;;;;9.63;5.10;;;;;;;;;;5008232;28;20249;-75
2021/11/21 09:40:52;;;;;;;11.33;5.17;;;;;;;;;;4977356;28;20212;-72
2021/11/21 09:43:20;;;;;;;9.57;5.00;;;;;;;;;;4991589;28;20223;-74
2021/11/21 09:45:46;;;;;;;9.80;5.13;;;;;;;;;;4993257;28;20687;-74
2021/11/21 09:48:12;;;;;;;10.07;5.07;;;;;;;;;;5010595;28;20219;-73
2021/11/21 09:50:40;;;;;;;9.30;5.83;;;;;;;;;;5012743;28;20609;-76
2021/11/21 09:53:12;;;;;;;12.13;5.40;;;;;;;;;;4993751;28;20217;-75
2021/11/21 09:55:41;;;;;;;9.30;5.60;;;;;;;;;;4994407;28;20255;-74
2021/11/21 09:58:09;;;;;;;11.77;5.90;;;;;;;;;;4992387;28;20220;-75
2021/11/21 10:00:40;;;;;;;9.47;5.00;;;;;;;;;;4996139;28;20217;-75
2021/11/21 10:03:12;;;;;;;8.83;4.97;;;;;;;;;;5001655;28;20626;-73
2021/11/21 10:05:50;;;;;;;10.83;4.80;;;;;;;;;;5011158;28;20782;-74
2021/11/21 10:08:22;;;;;;;9.97;4.90;;;;;;;;;;4991276;28;20667;-74
2021/11/21 10:10:48;;;;;;;8.47;5.23;;;;;;;;;;4990877;28;20599;-75
2021/11/21 10:13:40;;;;;;;13.13;5.47;;;;;;;;;;4992390;28;20213;-74
2021/11/21 10:16:23;;;;;;;9.07;5.27;;;;;;;;;;4991971;28;20307;-74
2021/11/21 10:19:08;;;;;;;10.30;5.47;;;;;;;;;;5006825;28;20246;-74
2021/11/21 10:21:53;;;;;;;9.80;5.23;;;;;;;;;;4994916;28;20225;-74
2021/11/21 10:24:21;;;;;;;8.47;4.80;;;;;;;;;;5022253;28;20240;-75
2021/11/21 10:27:00;;;;;;;10.50;5.40;;;;;;;;;;5004557;28;20221;-74
2021/11/21 10:29:42;;;;;;;8.70;4.87;;;;;;;;;;5009217;28;20275;-75
2021/11/21 10:32:27;;;;;;;7.20;4.13;;;;;;;;;;4994044;28;20255;-73
2021/11/21 10:34:53;;;;;;;8.50;4.00;;;;;;;;;;4989639;28;20726;-74
2021/11/21 10:37:19;;;;;;;8.80;3.73;;;;;;;;;;5015187;28;20276;-73
2021/11/21 10:39:45;;;;;;;10.40;4.53;;;;;;;;;;5003903;28;20225;-74
2021/11/21 10:42:14;;;;;;;9.47;4.37;;;;;;;;;;4981741;28;20240;-73
2021/11/21 10:44:49;;;;;;;8.23;4.00;;;;;;;;;;5002914;28;20221;-73
2021/11/21 10:47:22;;;;;;;8.20;3.77;;;;;;;;;;4975353;28;20220;-75
2021/11/21 10:49:54;;;;;;;8.03;3.90;;;;;;;;;;5006365;28;20244;-73
2021/11/21 10:52:22;;;;;;;9.03;3.30;;;;;;;;;;4994158;28;20403;-74
2021/11/21 10:54:50;;;;;;;9.43;3.47;;;;;;;;;;5012814;28;20682;-74
2021/11/21 10:57:25;;;;;;;7.00;3.20;;;;;;;;;;5005946;28;20219;-74
2021/11/21 11:00:06;;;;;;;8.40;3.43;;;;;;;;;;4995111;28;20225;-74
2021/11/21 11:02:37;;;;;;;8.20;4.13;;;;;;;;;;4995598;28;20224;-74
2021/11/21 11:05:10;;;;;;;8.07;3.23;;;;;;;;;;4976866;28;20291;-75
2021/11/21 11:07:47;;;;;;;9.20;3.17;;;;;;;;;;5006299;28;20233;-75
2021/11/21 11:10:17;;;;;;;10.20;2.90;;;;;;;;;;5012700;28;20239;-75
2021/11/21 11:12:50;;;;;;;9.33;3.30;;;;;;;;;;5018662;28;20223;-74
2021/11/21 11:15:19;;;;;;;6.77;2.90;;;;;;;;;;4993230;28;20273;-75
2021/11/21 11:17:45;;;;;;;10.43;2.83;;;;;;;;;;4990013;28;20245;-75
2021/11/21 11:20:15;;;;;;;8.27;3.20;;;;;;;;;;4957011;28;20253;-75
2021/11/21 11:22:48;;;;;;;10.83;2.80;;;;;;;;;;5007530;28;20259;-74
2021/11/21 11:25:32;;;;;;;13.80;5.53;;;;;;;;;;4980614;28;20233;-75
2021/11/21 11:28:24;;;;;;;10.63;3.40;;;;;;;;;;4964336;28;20224;-75
2021/11/21 11:30:50;;;;;;;9.07;3.20;;;;;;;;;;4988968;28;20225;-75
2021/11/21 11:33:23;;;;;;;11.53;3.07;;;;;;;;;;4991558;28;20275;-75
2021/11/21 11:35:54;;;;;;;12.63;6.70;;;;;;;;;;4976898;28;20262;-75
2021/11/21 11:38:23;;;;;;;10.83;3.20;;;;;;;;;;4992823;28;20213;-74
2021/11/21 11:41:08;;;;;;;6.83;2.93;;;;;;;;;;5014177;28;20270;-73
2021/11/21 11:43:41;;;;;;;11.63;3.30;;;;;;;;;;4999556;28;20225;-72
2021/11/21 11:46:28;;;;;;;7.07;2.57;;;;;;;;;;4988320;28;20448;-76
2021/11/21 11:49:05;;;;;;;9.73;2.63;;;;;;;;;;5011722;28;20224;-73
2021/11/21 11:51:34;;;;;;;10.67;2.37;;;;;;;;;;5004579;28;20220;-74
2021/11/21 11:54:06;;;;;;;7.77;2.17;;;;;;;;;;5007841;28;20217;-74
2021/11/21 11:56:46;;;;;;;10.07;2.40;;;;;;;;;;4992661;28;20229;-75
2021/11/21 11:59:47;;;;;;;9.37;2.50;;;;;;;;;;4979637;28;20216;-74
2021/11/21 12:02:32;;;;;;;12.03;2.43;;;;;;;;;;5012397;28;20226;-74
2021/11/21 12:04:59;;;;;;;7.07;1.90;;;;;;;;;;4996441;28;20247;-75
2021/11/21 12:07:26;;;;;;;9.43;2.00;;;;;;;;;;4994916;28;20765;-74
2021/11/21 12:10:00;;;;;;;9.20;2.13;;;;;;;;;;5022889;28;20244;-74
2021/11/21 12:12:56;;;;;;;7.70;2.13;;;;;;;;;;5015472;28;20227;-74
2021/11/21 12:15:47;;;;;;;9.73;2.27;;;;;;;;;;4975558;28;20229;-74
2021/11/21 12:18:16;;;;;;;9.13;2.30;;;;;;;;;;5007140;28;20217;-76
2021/11/21 12:20:47;;;;;;;12.07;2.40;;;;;;;;;;4978134;28;20655;-75
2021/11/21 12:23:40;;;;;;;10.17;2.57;;;;;;;;;;4998953;28;20255;-75
2021/11/21 12:26:36;;;;;;;9.07;2.37;;;;;;;;;;5023186;28;20225;-75
2021/11/21 12:29:08;;;;;;;8.57;2.20;;;;;;;;;;4992464;28;20229;-75
2021/11/21 12:31:42;;;;;;;7.47;2.33;;;;;;;;;;4978085;28;20221;-74
2021/11/21 12:34:28;;;;;;;10.63;2.17;;;;;;;;;;4994405;28;20221;-73
2021/11/21 12:37:25;;;;;;;9.77;2.27;;;;;;;;;;5002631;28;20220;-74
2021/11/21 12:40:36;;;;;;;8.97;1.80;;;;;;;;;;5007211;28;20208;-75
2021/11/21 12:43:10;;;;;;;9.93;1.90;;;;;;;;;;4991207;28;20224;-74
2021/11/21 12:45:41;;;;;;;9.13;3.40;;;;;;;;;;4994945;28;20261;-75
2021/11/21 12:48:07;;;;;;;7.53;1.77;;;;;;;;;;4992760;28;20726;-74
2021/11/21 12:50:36;;;;;;;19.87;8.87;;;;;;;;;;5005052;28;20224;-74
2021/11/21 12:53:05;;;;;;;10.03;4.17;;;;;;;;;;4996792;28;20355;-75
2021/11/21 12:55:43;;;;;;;5.70;1.80;;;;;;;;;;4994299;28;20239;-74
2021/11/21 12:58:15;;;;;;;6.23;1.90;;;;;;;;;;4979573;28;20642;-75
2021/11/21 13:00:41;;;;;;;6.17;2.00;;;;;;;;;;5011588;28;20213;-75
2021/11/21 13:03:09;;;;;;;6.83;1.80;;;;;;;;;;5011740;28;20216;-74
2021/11/21 13:05:43;;;;;;;6.80;1.93;;;;;;;;;;4989595;28;20249;-74
2021/11/21 13:08:20;;;;;;;10.30;4.20;;;;;;;;;;4981170;28;20218;-75
2021/11/21 13:10:49;;;;;;;10.73;2.47;;;;;;;;;;5008278;28;20306;-74
2021/11/21 13:13:22;;;;;;;9.33;2.80;;;;;;;;;;5005971;28;20320;-74
2021/11/21 13:15:50;;;;;;;6.77;2.00;;;;;;;;;;5028713;28;20233;-73
2021/11/21 13:18:22;;;;;;;10.77;2.67;;;;;;;;;;4972296;28;20222;-75
2021/11/21 13:20:53;;;;;;;8.17;2.10;;;;;;;;;;4971432;28;20218;-74
2021/11/21 13:23:22;;;;;;;6.73;1.50;;;;;;;;;;4963194;28;20214;-74
2021/11/21 13:25:56;;;;;;;6.93;2.30;;;;;;;;;;4994400;28;20636;-74
2021/11/21 13:28:43;;;;;;;9.80;2.10;;;;;;;;;;5021134;28;20230;-74
2021/11/21 13:31:16;;;;;;;9.67;2.07;;;;;;;;;;4999119;28;20735;-74
2021/11/21 13:34:00;;;;;;;7.83;1.70;;;;;;;;;;4981479;28;20287;-74
2021/11/21 13:36:32;;;;;;;4.97;1.70;;;;;;;;;;5013449;28;20243;-75
2021/11/21 13:39:22;;;;;;;8.53;1.60;;;;;;;;;;5006166;28;20229;-72
2021/11/21 13:42:04;;;;;;;5.43;1.73;;;;;;;;;;5018152;28;20227;-75
2021/11/21 13:44:36;;;;;;;7.20;2.20;;;;;;;;;;5012465;28;20351;-74
2021/11/21 13:47:09;;;;;;;6.67;1.97;;;;;;;;;;4997295;28;20228;-74
2021/11/21 13:49:45;;;;;;;6.13;1.80;;;;;;;;;;5007995;28;20225;-74
2021/11/21 13:52:18;;;;;;;5.13;1.30;;;;;;;;;;4977265;28;20641;-74
2021/11/21 13:54:46;;;;;;;4.23;1.30;;;;;;;;;;4964994;28;20355;-74
2021/11/21 13:57:27;;;;;;;5.80;1.40;;;;;;;;;;4994278;28;20217;-74
2021/11/21 13:59:54;;;;;;;6.20;1.33;;;;;;;;;;5006057;28;20224;-75
2021/11/21 14:02:41;;;;;;;1.50;0.67;;;;;;;;;;4992478;28;20320;-73
2021/11/21 14:05:08;;;;;;;3.07;0.90;;;;;;;;;;4997562;28;20248;-75
2021/11/21 14:07:34;;;;;;;2.87;0.80;;;;;;;;;;4989913;28;20248;-76
2021/11/21 14:10:04;;;;;;;2.10;0.70;;;;;;;;;;4991948;28;20576;-74
2021/11/21 14:12:40;;;;;;;4.20;1.10;;;;;;;;;;5008213;28;20229;-75
2021/11/21 14:15:12;;;;;;;4.77;1.50;;;;;;;;;;4999222;28;20706;-74
2021/11/21 14:17:43;;;;;;;3.10;1.13;;;;;;;;;;5010521;28;20270;-73
2021/11/21 14:20:30;;;;;;;4.37;2.83;;;;;;;;;;5004292;28;20647;-75
2021/11/21 14:23:08;;;;;;;4.47;2.00;;;;;;;;;;5010447;28;20228;-74
2021/11/21 14:25:43;;;;;;;2.43;1.33;;;;;;;;;;5007512;28;20221;-74
2021/11/21 14:28:23;;;;;;;3.60;1.40;;;;;;;;;;4977246;28;20216;-75
2021/11/21 14:30:57;;;;;;;3.33;1.83;;;;;;;;;;4980250;28;20390;-74
2021/11/21 14:33:23;;;;;;;8.93;3.67;;;;;;;;;;5007305;28;20232;-74
2021/11/21 14:35:51;;;;;;;8.67;6.23;;;;;;;;;;4979784;28;20217;-73
2021/11/21 14:38:16;;;;;;;18.40;11.80;;;;;;;;;;4997231;28;20212;-74
2021/11/21 14:41:15;;;;;;;27.83;17.73;;;;;;;;;;4994546;28;20237;-73
2021/11/21 14:43:45;;;;;;;69.87;40.17;;;;;;;;;;4990626;28;20221;-75
2021/11/21 14:46:17;;;;;;;73.13;40.90;;;;;;;;;;4966818;28;20247;-74